sensor_id;sensor_type;location;lat;lon;timestamp;temperature;humidity
20200;DHT22;36284;37.236;-121.934;2023-11-18T00:01:36;18.50;99.90
20200;DHT22;36284;37.236;-121.934;2023-11-18T00:04:03;18.50;99.90
20200;DHT22;36284;37.236;-121.934;2023-11-18T00:06:31;18.50;99.90
20200;DHT22;36284;37.236;-121.934;2023-11-18T00:08:58;18.30;99.90
20200;DHT22;36284;37.236;-121.934;2023-11-18T00:11:26;18.30;99.90
20200;DHT22;36284;37.236;-121.934;2023-11-18T00:13:53;18.30;99.90
20200;DHT22;36284;37.236;-121.934;2023-11-18T00:16:20;18.30;99.90
20200;DHT22;36284;37.236;-121.934;2023-11-18T00:18:48;18.30;99.90
20200;DHT22;36284;37.236;-121.934;2023-11-18T00:21:15;18.30;99.90
20200;DHT22;36284;37.236;-121.934;2023-11-18T00:23:43;18.20;99.90
20200;DHT22;36284;37.236;-121.934;2023-11-18T00:26:12;18.20;99.90
20200;DHT22;36284;37.236;-121.934;2023-11-18T00:28:39;18.20;99.90
20200;DHT22;36284;37.236;-121.934;2023-11-18T00:31:06;18.20;99.90
20200;DHT22;36284;37.236;-121.934;2023-11-18T00:33:33;18.10;99.90
20200;DHT22;36284;37.236;-121.934;2023-11-18T00:36:00;18.00;99.90
20200;DHT22;36284;37.236;-121.934;2023-11-18T00:38:27;18.00;99.90
20200;DHT22;36284;37.236;-121.934;2023-11-18T00:40:54;17.90;99.90
20200;DHT22;36284;37.236;-121.934;2023-11-18T00:43:21;17.90;99.90
20200;DHT22;36284;37.236;-121.934;2023-11-18T00:45:49;17.80;99.90
20200;DHT22;36284;37.236;-121.934;2023-11-18T00:48:16;17.80;99.90
20200;DHT22;36284;37.236;-121.934;2023-11-18T00:50:43;17.80;99.90
20200;DHT22;36284;37.236;-121.934;2023-11-18T00:53:10;17.80;99.90
20200;DHT22;36284;37.236;-121.934;2023-11-18T00:55:36;17.70;99.90
20200;DHT22;36284;37.236;-121.934;2023-11-18T00:58:03;17.60;99.90
20200;DHT22;36284;37.236;-121.934;2023-11-18T01:00:31;17.40;99.90
20200;DHT22;36284;37.236;-121.934;2023-11-18T01:03:00;17.00;99.90
20200;DHT22;36284;37.236;-121.934;2023-11-18T01:05:27;17.00;99.90
20200;DHT22;36284;37.236;-121.934;2023-11-18T01:07:54;16.70;99.90
20200;DHT22;36284;37.236;-121.934;2023-11-18T01:10:21;16.60;99.90
20200;DHT22;36284;37.236;-121.934;2023-11-18T01:12:48;16.60;99.90
20200;DHT22;36284;37.236;-121.934;2023-11-18T01:15:14;16.70;99.90
20200;DHT22;36284;37.236;-121.934;2023-11-18T01:17:41;16.70;99.90
20200;DHT22;36284;37.236;-121.934;2023-11-18T01:20:09;16.60;99.90
20200;DHT22;36284;37.236;-121.934;2023-11-18T01:22:37;16.40;99.90
20200;DHT22;36284;37.236;-121.934;2023-11-18T01:25:06;16.40;99.90
20200;DHT22;36284;37.236;-121.934;2023-11-18T01:27:35;16.30;99.90
20200;DHT22;36284;37.236;-121.934;2023-11-18T01:30:02;16.20;99.90
20200;DHT22;36284;37.236;-121.934;2023-11-18T01:32:30;16.10;99.90
20200;DHT22;36284;37.236;-121.934;2023-11-18T01:34:58;16.10;99.90
20200;DHT22;36284;37.236;-121.934;2023-11-18T01:37:25;16.10;99.90
20200;DHT22;36284;37.236;-121.934;2023-11-18T01:39:52;16.10;99.90
20200;DHT22;36284;37.236;-121.934;2023-11-18T01:42:19;16.00;99.90
20200;DHT22;36284;37.236;-121.934;2023-11-18T01:44:46;15.90;99.90
20200;DHT22;36284;37.236;-121.934;2023-11-18T01:47:13;15.90;99.90
20200;DHT22;36284;37.236;-121.934;2023-11-18T01:49:41;15.90;99.90
20200;DHT22;36284;37.236;-121.934;2023-11-18T01:52:08;15.90;99.90
20200;DHT22;36284;37.236;-121.934;2023-11-18T01:54:40;15.80;99.90
20200;DHT22;36284;37.236;-121.934;2023-11-18T01:57:09;16.00;99.90
20200;DHT22;36284;37.236;-121.934;2023-11-18T01:59:36;15.80;99.90
20200;DHT22;36284;37.236;-121.934;2023-11-18T02:02:06;15.50;99.90
20200;DHT22;36284;37.236;-121.934;2023-11-18T02:04:33;15.50;99.90
20200;DHT22;36284;37.236;-121.934;2023-11-18T02:07:00;15.50;99.90
20200;DHT22;36284;37.236;-121.934;2023-11-18T02:09:31;15.50;99.90
20200;DHT22;36284;37.236;-121.934;2023-11-18T02:14:43;15.30;99.90
20200;DHT22;36284;37.236;-121.934;2023-11-18T02:17:14;15.10;99.90
20200;DHT22;36284;37.236;-121.934;2023-11-18T02:19:41;15.10;99.90
20200;DHT22;36284;37.236;-121.934;2023-11-18T02:22:09;15.10;99.90
20200;DHT22;36284;37.236;-121.934;2023-11-18T02:24:37;14.90;99.90
20200;DHT22;36284;37.236;-121.934;2023-11-18T02:27:07;14.90;99.90
20200;DHT22;36284;37.236;-121.934;2023-11-18T02:29:40;14.90;99.90
20200;DHT22;36284;37.236;-121.934;2023-11-18T02:32:32;14.90;99.90
20200;DHT22;36284;37.236;-121.934;2023-11-18T02:37:49;14.80;99.90
20200;DHT22;36284;37.236;-121.934;2023-11-18T02:40:20;14.70;99.90
20200;DHT22;36284;37.236;-121.934;2023-11-18T02:42:51;14.70;99.90
20200;DHT22;36284;37.236;-121.934;2023-11-18T02:45:19;14.60;99.90
20200;DHT22;36284;37.236;-121.934;2023-11-18T02:47:47;14.60;99.90
20200;DHT22;36284;37.236;-121.934;2023-11-18T02:50:15;14.50;99.90
20200;DHT22;36284;37.236;-121.934;2023-11-18T02:52:42;14.50;99.90
20200;DHT22;36284;37.236;-121.934;2023-11-18T02:55:09;14.40;99.90
20200;DHT22;36284;37.236;-121.934;2023-11-18T02:57:37;14.40;99.90
20200;DHT22;36284;37.236;-121.934;2023-11-18T03:00:05;14.40;99.90
20200;DHT22;36284;37.236;-121.934;2023-11-18T03:02:37;14.40;99.90
20200;DHT22;36284;37.236;-121.934;2023-11-18T03:05:07;14.30;99.90
20200;DHT22;36284;37.236;-121.934;2023-11-18T03:07:34;14.40;99.90
20200;DHT22;36284;37.236;-121.934;2023-11-18T03:10:01;14.40;99.90
20200;DHT22;36284;37.236;-121.934;2023-11-18T03:12:27;14.40;99.90
20200;DHT22;36284;37.236;-121.934;2023-11-18T03:14:54;14.30;99.90
20200;DHT22;36284;37.236;-121.934;2023-11-18T03:17:23;14.30;99.90
20200;DHT22;36284;37.236;-121.934;2023-11-18T03:19:51;14.30;99.90
20200;DHT22;36284;37.236;-121.934;2023-11-18T03:22:18;14.20;99.90
20200;DHT22;36284;37.236;-121.934;2023-11-18T03:24:44;14.20;99.90
20200;DHT22;36284;37.236;-121.934;2023-11-18T03:27:11;14.30;99.90
20200;DHT22;36284;37.236;-121.934;2023-11-18T03:29:38;14.50;99.90
20200;DHT22;36284;37.236;-121.934;2023-11-18T03:32:07;14.70;99.90
20200;DHT22;36284;37.236;-121.934;2023-11-18T03:34:34;14.70;99.90
20200;DHT22;36284;37.236;-121.934;2023-11-18T03:37:00;14.70;99.90
20200;DHT22;36284;37.236;-121.934;2023-11-18T03:39:27;14.70;99.90
20200;DHT22;36284;37.236;-121.934;2023-11-18T03:41:54;14.70;99.90
20200;DHT22;36284;37.236;-121.934;2023-11-18T03:44:24;15.20;99.90
20200;DHT22;36284;37.236;-121.934;2023-11-18T03:46:50;15.60;99.90
20200;DHT22;36284;37.236;-121.934;2023-11-18T03:49:17;15.50;99.90
20200;DHT22;36284;37.236;-121.934;2023-11-18T03:51:46;15.60;99.90
20200;DHT22;36284;37.236;-121.934;2023-11-18T03:54:13;15.50;99.90
20200;DHT22;36284;37.236;-121.934;2023-11-18T03:56:40;15.80;99.90
20200;DHT22;36284;37.236;-121.934;2023-11-18T03:59:08;15.80;99.90
20200;DHT22;36284;37.236;-121.934;2023-11-18T04:01:35;15.60;99.90
20200;DHT22;36284;37.236;-121.934;2023-11-18T04:04:02;15.40;99.90
20200;DHT22;36284;37.236;-121.934;2023-11-18T04:06:30;15.40;99.90
20200;DHT22;36284;37.236;-121.934;2023-11-18T04:08:57;15.40;99.90
20200;DHT22;36284;37.236;-121.934;2023-11-18T04:11:25;15.30;99.90
20200;DHT22;36284;37.236;-121.934;2023-11-18T04:13:52;15.10;99.90
20200;DHT22;36284;37.236;-121.934;2023-11-18T04:16:19;15.10;99.90
20200;DHT22;36284;37.236;-121.934;2023-11-18T04:18:46;14.80;99.90
20200;DHT22;36284;37.236;-121.934;2023-11-18T04:21:13;14.60;99.90
20200;DHT22;36284;37.236;-121.934;2023-11-18T04:23:41;14.80;99.90
20200;DHT22;36284;37.236;-121.934;2023-11-18T04:26:09;14.90;99.90
20200;DHT22;36284;37.236;-121.934;2023-11-18T04:28:36;14.80;99.90
20200;DHT22;36284;37.236;-121.934;2023-11-18T04:31:03;14.60;99.90
20200;DHT22;36284;37.236;-121.934;2023-11-18T04:33:31;14.60;99.90
20200;DHT22;36284;37.236;-121.934;2023-11-18T04:35:59;14.50;99.90
20200;DHT22;36284;37.236;-121.934;2023-11-18T04:38:26;14.60;99.90
20200;DHT22;36284;37.236;-121.934;2023-11-18T04:40:54;14.70;99.90
20200;DHT22;36284;37.236;-121.934;2023-11-18T04:43:22;14.70;99.90
20200;DHT22;36284;37.236;-121.934;2023-11-18T04:45:50;14.70;99.90
20200;DHT22;36284;37.236;-121.934;2023-11-18T04:48:17;14.90;99.90
20200;DHT22;36284;37.236;-121.934;2023-11-18T04:50:44;14.70;99.90
20200;DHT22;36284;37.236;-121.934;2023-11-18T04:53:11;14.70;99.90
20200;DHT22;36284;37.236;-121.934;2023-11-18T04:55:39;14.70;99.90
20200;DHT22;36284;37.236;-121.934;2023-11-18T04:58:06;14.80;99.90
20200;DHT22;36284;37.236;-121.934;2023-11-18T05:00:38;14.90;99.90
20200;DHT22;36284;37.236;-121.934;2023-11-18T05:03:06;14.90;99.90
20200;DHT22;36284;37.236;-121.934;2023-11-18T05:05:39;15.50;99.90
20200;DHT22;36284;37.236;-121.934;2023-11-18T05:08:07;15.40;99.90
20200;DHT22;36284;37.236;-121.934;2023-11-18T05:10:37;15.30;99.90
20200;DHT22;36284;37.236;-121.934;2023-11-18T05:13:04;15.20;99.90
20200;DHT22;36284;37.236;-121.934;2023-11-18T05:15:31;15.00;99.90
20200;DHT22;36284;37.236;-121.934;2023-11-18T05:17:58;15.20;99.90
20200;DHT22;36284;37.236;-121.934;2023-11-18T05:20:25;15.30;99.90
20200;DHT22;36284;37.236;-121.934;2023-11-18T05:22:53;15.50;99.90
20200;DHT22;36284;37.236;-121.934;2023-11-18T05:25:21;15.60;99.90
20200;DHT22;36284;37.236;-121.934;2023-11-18T05:27:47;15.60;99.90
20200;DHT22;36284;37.236;-121.934;2023-11-18T05:30:14;15.40;99.90
20200;DHT22;36284;37.236;-121.934;2023-11-18T05:32:41;15.30;99.90
20200;DHT22;36284;37.236;-121.934;2023-11-18T05:35:08;15.60;99.90
20200;DHT22;36284;37.236;-121.934;2023-11-18T05:37:38;15.60;99.90
20200;DHT22;36284;37.236;-121.934;2023-11-18T05:40:07;15.50;99.90
20200;DHT22;36284;37.236;-121.934;2023-11-18T05:42:36;15.50;99.90
20200;DHT22;36284;37.236;-121.934;2023-11-18T05:45:04;15.70;99.90
20200;DHT22;36284;37.236;-121.934;2023-11-18T05:47:34;16.30;99.90
20200;DHT22;36284;37.236;-121.934;2023-11-18T05:50:01;16.60;99.90
20200;DHT22;36284;37.236;-121.934;2023-11-18T05:52:28;16.50;99.90
20200;DHT22;36284;37.236;-121.934;2023-11-18T05:54:55;16.70;99.90
20200;DHT22;36284;37.236;-121.934;2023-11-18T05:57:22;16.80;99.90
20200;DHT22;36284;37.236;-121.934;2023-11-18T05:59:49;16.80;99.90
20200;DHT22;36284;37.236;-121.934;2023-11-18T06:02:15;16.90;99.90
20200;DHT22;36284;37.236;-121.934;2023-11-18T06:04:45;17.00;99.90
20200;DHT22;36284;37.236;-121.934;2023-11-18T06:07:12;17.00;99.90
20200;DHT22;36284;37.236;-121.934;2023-11-18T06:09:41;17.00;99.90
20200;DHT22;36284;37.236;-121.934;2023-11-18T06:12:09;16.80;99.90
20200;DHT22;36284;37.236;-121.934;2023-11-18T06:14:40;16.90;99.90
20200;DHT22;36284;37.236;-121.934;2023-11-18T06:17:08;17.00;99.90
20200;DHT22;36284;37.236;-121.934;2023-11-18T06:19:35;17.10;99.90
20200;DHT22;36284;37.236;-121.934;2023-11-18T06:22:02;17.00;99.90
20200;DHT22;36284;37.236;-121.934;2023-11-18T06:24:29;17.00;99.90
20200;DHT22;36284;37.236;-121.934;2023-11-18T06:26:56;17.00;99.90
20200;DHT22;36284;37.236;-121.934;2023-11-18T06:29:23;16.90;99.90
20200;DHT22;36284;37.236;-121.934;2023-11-18T06:31:50;16.80;99.90
20200;DHT22;36284;37.236;-121.934;2023-11-18T06:34:17;16.60;99.90
20200;DHT22;36284;37.236;-121.934;2023-11-18T06:36:44;16.20;99.90
20200;DHT22;36284;37.236;-121.934;2023-11-18T06:39:12;15.90;99.90
20200;DHT22;36284;37.236;-121.934;2023-11-18T06:41:39;15.80;99.90
20200;DHT22;36284;37.236;-121.934;2023-11-18T06:44:15;15.70;99.90
20200;DHT22;36284;37.236;-121.934;2023-11-18T06:46:44;15.60;99.90
20200;DHT22;36284;37.236;-121.934;2023-11-18T06:49:11;15.30;99.90
20200;DHT22;36284;37.236;-121.934;2023-11-18T06:51:42;15.10;99.90
20200;DHT22;36284;37.236;-121.934;2023-11-18T06:54:09;15.00;99.90
20200;DHT22;36284;37.236;-121.934;2023-11-18T06:56:38;15.10;99.90
20200;DHT22;36284;37.236;-121.934;2023-11-18T06:59:06;15.00;99.90
20200;DHT22;36284;37.236;-121.934;2023-11-18T07:01:34;14.90;99.90
20200;DHT22;36284;37.236;-121.934;2023-11-18T07:04:02;14.80;99.90
20200;DHT22;36284;37.236;-121.934;2023-11-18T07:06:29;14.80;99.90
20200;DHT22;36284;37.236;-121.934;2023-11-18T07:08:56;14.70;99.90
20200;DHT22;36284;37.236;-121.934;2023-11-18T07:11:27;14.70;99.90
20200;DHT22;36284;37.236;-121.934;2023-11-18T07:13:54;14.60;99.90
20200;DHT22;36284;37.236;-121.934;2023-11-18T07:16:26;14.80;99.90
20200;DHT22;36284;37.236;-121.934;2023-11-18T07:18:54;14.70;99.90
20200;DHT22;36284;37.236;-121.934;2023-11-18T07:21:21;14.50;99.90
20200;DHT22;36284;37.236;-121.934;2023-11-18T07:23:49;14.40;99.90
20200;DHT22;36284;37.236;-121.934;2023-11-18T07:26:15;14.50;99.90
20200;DHT22;36284;37.236;-121.934;2023-11-18T07:28:42;14.40;99.90
20200;DHT22;36284;37.236;-121.934;2023-11-18T07:31:10;14.60;99.90
20200;DHT22;36284;37.236;-121.934;2023-11-18T07:33:39;14.50;99.90
20200;DHT22;36284;37.236;-121.934;2023-11-18T07:36:06;14.50;99.90
20200;DHT22;36284;37.236;-121.934;2023-11-18T07:38:37;14.50;99.90
20200;DHT22;36284;37.236;-121.934;2023-11-18T07:41:04;14.40;99.90
20200;DHT22;36284;37.236;-121.934;2023-11-18T07:43:37;14.30;99.90
20200;DHT22;36284;37.236;-121.934;2023-11-18T07:46:06;14.50;99.90
20200;DHT22;36284;37.236;-121.934;2023-11-18T07:48:34;14.60;99.90
20200;DHT22;36284;37.236;-121.934;2023-11-18T07:51:01;14.50;99.90
20200;DHT22;36284;37.236;-121.934;2023-11-18T07:53:28;14.50;99.90
20200;DHT22;36284;37.236;-121.934;2023-11-18T07:55:56;14.40;99.90
20200;DHT22;36284;37.236;-121.934;2023-11-18T07:58:23;14.40;99.90
20200;DHT22;36284;37.236;-121.934;2023-11-18T08:00:50;14.40;99.90
20200;DHT22;36284;37.236;-121.934;2023-11-18T08:03:17;14.40;99.90
20200;DHT22;36284;37.236;-121.934;2023-11-18T08:05:45;14.40;99.90
20200;DHT22;36284;37.236;-121.934;2023-11-18T08:08:13;14.30;99.90
20200;DHT22;36284;37.236;-121.934;2023-11-18T08:10:41;14.40;99.90
20200;DHT22;36284;37.236;-121.934;2023-11-18T08:13:09;14.30;99.90
20200;DHT22;36284;37.236;-121.934;2023-11-18T08:15:40;14.40;99.90
20200;DHT22;36284;37.236;-121.934;2023-11-18T08:18:08;14.30;99.90
20200;DHT22;36284;37.236;-121.934;2023-11-18T08:20:36;14.30;99.90
20200;DHT22;36284;37.236;-121.934;2023-11-18T08:23:04;14.40;99.90
20200;DHT22;36284;37.236;-121.934;2023-11-18T08:25:34;14.40;99.90
20200;DHT22;36284;37.236;-121.934;2023-11-18T08:28:07;14.40;99.90
20200;DHT22;36284;37.236;-121.934;2023-11-18T08:30:38;14.20;99.90
20200;DHT22;36284;37.236;-121.934;2023-11-18T08:33:05;14.30;99.90
20200;DHT22;36284;37.236;-121.934;2023-11-18T08:35:36;14.30;99.90
20200;DHT22;36284;37.236;-121.934;2023-11-18T08:38:03;14.30;99.90
20200;DHT22;36284;37.236;-121.934;2023-11-18T08:40:31;14.30;99.90
20200;DHT22;36284;37.236;-121.934;2023-11-18T08:42:58;14.30;99.90
20200;DHT22;36284;37.236;-121.934;2023-11-18T08:45:26;14.20;99.90
20200;DHT22;36284;37.236;-121.934;2023-11-18T08:47:56;14.40;99.90
20200;DHT22;36284;37.236;-121.934;2023-11-18T08:50:24;14.40;99.90
20200;DHT22;36284;37.236;-121.934;2023-11-18T08:52:55;14.40;99.90
20200;DHT22;36284;37.236;-121.934;2023-11-18T08:55:32;14.50;99.90
20200;DHT22;36284;37.236;-121.934;2023-11-18T08:58:12;14.50;99.90
20200;DHT22;36284;37.236;-121.934;2023-11-18T09:00:46;14.50;99.90
20200;DHT22;36284;37.236;-121.934;2023-11-18T09:03:17;14.40;99.90
20200;DHT22;36284;37.236;-121.934;2023-11-18T09:05:46;14.40;99.90
20200;DHT22;36284;37.236;-121.934;2023-11-18T09:08:34;14.40;99.90
20200;DHT22;36284;37.236;-121.934;2023-11-18T09:11:03;14.40;99.90
20200;DHT22;36284;37.236;-121.934;2023-11-18T09:13:32;14.30;99.90
20200;DHT22;36284;37.236;-121.934;2023-11-18T09:18:30;14.20;99.90
20200;DHT22;36284;37.236;-121.934;2023-11-18T09:20:59;14.20;99.90
20200;DHT22;36284;37.236;-121.934;2023-11-18T09:23:29;14.20;99.90
20200;DHT22;36284;37.236;-121.934;2023-11-18T09:25:58;14.10;99.90
20200;DHT22;36284;37.236;-121.934;2023-11-18T09:28:26;14.10;99.90
20200;DHT22;36284;37.236;-121.934;2023-11-18T09:30:55;14.10;99.90
20200;DHT22;36284;37.236;-121.934;2023-11-18T09:33:25;14.00;99.90
20200;DHT22;36284;37.236;-121.934;2023-11-18T09:35:55;14.00;99.90
20200;DHT22;36284;37.236;-121.934;2023-11-18T09:38:27;14.00;99.90
20200;DHT22;36284;37.236;-121.934;2023-11-18T09:40:57;14.00;99.90
20200;DHT22;36284;37.236;-121.934;2023-11-18T09:43:26;14.00;99.90
20200;DHT22;36284;37.236;-121.934;2023-11-18T09:46:05;13.90;99.90
20200;DHT22;36284;37.236;-121.934;2023-11-18T09:51:45;13.80;99.90
20200;DHT22;36284;37.236;-121.934;2023-11-18T09:57:08;13.80;99.90
20200;DHT22;36284;37.236;-121.934;2023-11-18T10:02:22;13.80;99.90
20200;DHT22;36284;37.236;-121.934;2023-11-18T10:04:50;13.70;99.90
20200;DHT22;36284;37.236;-121.934;2023-11-18T10:07:27;13.80;99.90
20200;DHT22;36284;37.236;-121.934;2023-11-18T10:09:58;13.90;99.90
20200;DHT22;36284;37.236;-121.934;2023-11-18T10:12:28;14.40;99.90
20200;DHT22;36284;37.236;-121.934;2023-11-18T10:14:56;14.30;99.90
20200;DHT22;36284;37.236;-121.934;2023-11-18T10:17:25;14.30;99.90
20200;DHT22;36284;37.236;-121.934;2023-11-18T10:19:57;14.20;99.90
20200;DHT22;36284;37.236;-121.934;2023-11-18T10:22:28;14.10;99.90
20200;DHT22;36284;37.236;-121.934;2023-11-18T10:24:56;14.00;99.90
20200;DHT22;36284;37.236;-121.934;2023-11-18T10:27:27;13.90;99.90
20200;DHT22;36284;37.236;-121.934;2023-11-18T10:29:58;14.00;99.90
20200;DHT22;36284;37.236;-121.934;2023-11-18T10:32:29;14.00;99.90
20200;DHT22;36284;37.236;-121.934;2023-11-18T10:34:57;13.90;99.90
20200;DHT22;36284;37.236;-121.934;2023-11-18T10:37:25;13.90;99.90
20200;DHT22;36284;37.236;-121.934;2023-11-18T10:39:53;13.90;99.90
20200;DHT22;36284;37.236;-121.934;2023-11-18T10:42:20;13.80;99.90
20200;DHT22;36284;37.236;-121.934;2023-11-18T10:45:05;13.80;99.90
20200;DHT22;36284;37.236;-121.934;2023-11-18T10:47:35;13.80;99.90
20200;DHT22;36284;37.236;-121.934;2023-11-18T10:50:02;13.90;99.90
20200;DHT22;36284;37.236;-121.934;2023-11-18T10:52:29;13.80;99.90
20200;DHT22;36284;37.236;-121.934;2023-11-18T10:54:58;13.80;99.90
20200;DHT22;36284;37.236;-121.934;2023-11-18T10:57:25;13.80;99.90
20200;DHT22;36284;37.236;-121.934;2023-11-18T11:00:02;13.80;99.90
20200;DHT22;36284;37.236;-121.934;2023-11-18T11:02:31;13.70;99.90
20200;DHT22;36284;37.236;-121.934;2023-11-18T11:05:05;13.80;99.90
20200;DHT22;36284;37.236;-121.934;2023-11-18T11:07:36;14.10;99.90
20200;DHT22;36284;37.236;-121.934;2023-11-18T11:10:04;14.00;99.90
20200;DHT22;36284;37.236;-121.934;2023-11-18T11:12:35;14.00;99.90
20200;DHT22;36284;37.236;-121.934;2023-11-18T11:15:11;13.90;99.90
20200;DHT22;36284;37.236;-121.934;2023-11-18T11:17:52;13.90;99.90
20200;DHT22;36284;37.236;-121.934;2023-11-18T11:20:31;14.40;99.90
20200;DHT22;36284;37.236;-121.934;2023-11-18T11:31:39;14.00;99.90
20200;DHT22;36284;37.236;-121.934;2023-11-18T11:34:19;14.00;99.90
20200;DHT22;36284;37.236;-121.934;2023-11-18T11:36:47;14.00;99.90
20200;DHT22;36284;37.236;-121.934;2023-11-18T11:39:18;13.80;99.90
20200;DHT22;36284;37.236;-121.934;2023-11-18T11:41:52;13.80;99.90
20200;DHT22;36284;37.236;-121.934;2023-11-18T11:44:23;13.80;99.90
20200;DHT22;36284;37.236;-121.934;2023-11-18T11:47:00;13.80;99.90
20200;DHT22;36284;37.236;-121.934;2023-11-18T11:49:34;13.80;99.90
20200;DHT22;36284;37.236;-121.934;2023-11-18T11:52:53;13.80;99.90
20200;DHT22;36284;37.236;-121.934;2023-11-18T11:58:05;13.70;99.90
20200;DHT22;36284;37.236;-121.934;2023-11-18T12:00:52;13.80;99.90
20200;DHT22;36284;37.236;-121.934;2023-11-18T12:03:23;13.80;99.90
20200;DHT22;36284;37.236;-121.934;2023-11-18T12:05:55;13.80;99.90
20200;DHT22;36284;37.236;-121.934;2023-11-18T12:08:23;13.80;99.90
20200;DHT22;36284;37.236;-121.934;2023-11-18T12:10:54;13.90;99.90
20200;DHT22;36284;37.236;-121.934;2023-11-18T12:13:24;13.80;99.90
20200;DHT22;36284;37.236;-121.934;2023-11-18T12:15:54;13.80;99.90
20200;DHT22;36284;37.236;-121.934;2023-11-18T12:18:23;13.90;99.90
20200;DHT22;36284;37.236;-121.934;2023-11-18T12:20:51;13.80;99.90
20200;DHT22;36284;37.236;-121.934;2023-11-18T12:23:22;13.80;99.90
20200;DHT22;36284;37.236;-121.934;2023-11-18T12:25:52;13.80;99.90
20200;DHT22;36284;37.236;-121.934;2023-11-18T12:28:32;13.80;99.90
20200;DHT22;36284;37.236;-121.934;2023-11-18T12:31:11;13.90;99.90
20200;DHT22;36284;37.236;-121.934;2023-11-18T12:39:41;13.70;99.90
20200;DHT22;36284;37.236;-121.934;2023-11-18T12:47:54;13.90;99.90
20200;DHT22;36284;37.236;-121.934;2023-11-18T12:50:22;14.00;99.90
20200;DHT22;36284;37.236;-121.934;2023-11-18T12:52:54;13.90;99.90
20200;DHT22;36284;37.236;-121.934;2023-11-18T12:55:24;14.00;99.90
20200;DHT22;36284;37.236;-121.934;2023-11-18T12:57:52;13.90;99.90
20200;DHT22;36284;37.236;-121.934;2023-11-18T13:00:20;13.90;99.90
20200;DHT22;36284;37.236;-121.934;2023-11-18T13:02:54;14.00;99.90
20200;DHT22;36284;37.236;-121.934;2023-11-18T13:05:21;13.90;99.90
20200;DHT22;36284;37.236;-121.934;2023-11-18T13:07:48;13.90;99.90
20200;DHT22;36284;37.236;-121.934;2023-11-18T13:10:16;13.90;99.90
20200;DHT22;36284;37.236;-121.934;2023-11-18T13:12:44;13.80;99.90
20200;DHT22;36284;37.236;-121.934;2023-11-18T13:15:12;13.90;99.90
20200;DHT22;36284;37.236;-121.934;2023-11-18T13:17:39;13.90;99.90
20200;DHT22;36284;37.236;-121.934;2023-11-18T13:20:13;13.90;99.90
20200;DHT22;36284;37.236;-121.934;2023-11-18T13:22:42;13.90;99.90
20200;DHT22;36284;37.236;-121.934;2023-11-18T13:25:09;13.80;99.90
20200;DHT22;36284;37.236;-121.934;2023-11-18T13:27:36;13.90;99.90
20200;DHT22;36284;37.236;-121.934;2023-11-18T13:30:05;14.00;99.90
20200;DHT22;36284;37.236;-121.934;2023-11-18T13:32:41;13.90;99.90
20200;DHT22;36284;37.236;-121.934;2023-11-18T13:35:09;13.90;99.90
20200;DHT22;36284;37.236;-121.934;2023-11-18T13:37:37;13.90;99.90
20200;DHT22;36284;37.236;-121.934;2023-11-18T13:40:04;13.90;99.90
20200;DHT22;36284;37.236;-121.934;2023-11-18T13:42:32;13.90;99.90
20200;DHT22;36284;37.236;-121.934;2023-11-18T13:45:03;13.90;99.90
20200;DHT22;36284;37.236;-121.934;2023-11-18T13:47:34;13.80;99.90
20200;DHT22;36284;37.236;-121.934;2023-11-18T13:50:07;13.80;99.90
20200;DHT22;36284;37.236;-121.934;2023-11-18T13:52:35;13.90;99.90
20200;DHT22;36284;37.236;-121.934;2023-11-18T13:55:06;13.90;99.90
20200;DHT22;36284;37.236;-121.934;2023-11-18T13:57:35;13.80;99.90
20200;DHT22;36284;37.236;-121.934;2023-11-18T14:00:02;13.80;99.90
20200;DHT22;36284;37.236;-121.934;2023-11-18T14:02:32;13.80;99.90
20200;DHT22;36284;37.236;-121.934;2023-11-18T14:05:00;13.80;99.90
20200;DHT22;36284;37.236;-121.934;2023-11-18T14:07:27;13.80;99.90
20200;DHT22;36284;37.236;-121.934;2023-11-18T14:09:54;13.90;99.90
20200;DHT22;36284;37.236;-121.934;2023-11-18T14:12:23;13.90;99.90
20200;DHT22;36284;37.236;-121.934;2023-11-18T14:14:53;14.00;99.90
20200;DHT22;36284;37.236;-121.934;2023-11-18T14:17:20;14.10;99.90
20200;DHT22;36284;37.236;-121.934;2023-11-18T14:19:48;14.10;99.90
20200;DHT22;36284;37.236;-121.934;2023-11-18T14:22:16;14.10;99.90
20200;DHT22;36284;37.236;-121.934;2023-11-18T14:24:43;14.10;99.90
20200;DHT22;36284;37.236;-121.934;2023-11-18T14:27:10;14.10;99.90
20200;DHT22;36284;37.236;-121.934;2023-11-18T14:29:37;14.10;99.90
20200;DHT22;36284;37.236;-121.934;2023-11-18T14:32:04;14.10;99.90
20200;DHT22;36284;37.236;-121.934;2023-11-18T14:34:32;14.10;99.90
20200;DHT22;36284;37.236;-121.934;2023-11-18T14:36:59;14.00;99.90
20200;DHT22;36284;37.236;-121.934;2023-11-18T14:39:27;14.10;99.90
20200;DHT22;36284;37.236;-121.934;2023-11-18T14:41:54;14.10;99.90
20200;DHT22;36284;37.236;-121.934;2023-11-18T14:44:21;14.10;99.90
20200;DHT22;36284;37.236;-121.934;2023-11-18T14:46:48;14.00;99.90
20200;DHT22;36284;37.236;-121.934;2023-11-18T14:49:15;14.00;99.90
20200;DHT22;36284;37.236;-121.934;2023-11-18T14:51:42;14.00;99.90
20200;DHT22;36284;37.236;-121.934;2023-11-18T14:54:09;14.00;99.90
20200;DHT22;36284;37.236;-121.934;2023-11-18T14:56:36;14.00;99.90
20200;DHT22;36284;37.236;-121.934;2023-11-18T14:59:03;14.00;99.90
20200;DHT22;36284;37.236;-121.934;2023-11-18T15:01:31;14.00;99.90
20200;DHT22;36284;37.236;-121.934;2023-11-18T15:03:58;14.00;99.90
20200;DHT22;36284;37.236;-121.934;2023-11-18T15:06:26;14.10;99.90
20200;DHT22;36284;37.236;-121.934;2023-11-18T15:08:53;14.10;99.90
20200;DHT22;36284;37.236;-121.934;2023-11-18T15:11:23;14.10;99.90
20200;DHT22;36284;37.236;-121.934;2023-11-18T15:13:51;14.00;99.90
20200;DHT22;36284;37.236;-121.934;2023-11-18T15:16:22;14.00;99.90
20200;DHT22;36284;37.236;-121.934;2023-11-18T15:18:49;14.00;99.90
20200;DHT22;36284;37.236;-121.934;2023-11-18T15:21:18;13.90;99.90
20200;DHT22;36284;37.236;-121.934;2023-11-18T15:23:45;13.90;99.90
20200;DHT22;36284;37.236;-121.934;2023-11-18T15:26:14;13.80;99.90
20200;DHT22;36284;37.236;-121.934;2023-11-18T15:28:41;13.80;99.90
20200;DHT22;36284;37.236;-121.934;2023-11-18T15:31:08;13.70;99.90
20200;DHT22;36284;37.236;-121.934;2023-11-18T15:33:35;13.80;99.90
20200;DHT22;36284;37.236;-121.934;2023-11-18T15:36:02;13.80;99.90
20200;DHT22;36284;37.236;-121.934;2023-11-18T15:38:30;13.80;99.90